createdAt,value
2016-06-30T00:00:04.418Z,17.6
2016-06-30T00:00:34.430Z,17.67
2016-06-30T00:01:04.482Z,17.59
2016-06-30T00:01:34.476Z,17.63
2016-06-30T00:02:04.476Z,17.65
2016-06-30T00:02:34.498Z,17.7
2016-06-30T00:03:04.513Z,17.67
2016-06-30T00:03:33.929Z,17.64
2016-06-30T00:04:04.542Z,17.6
2016-06-30T00:04:34.557Z,17.6
2016-06-30T00:05:04.561Z,17.63
2016-06-30T00:05:34.586Z,17.6
2016-06-30T00:06:04.615Z,17.6
2016-06-30T00:06:34.636Z,17.63
2016-06-30T00:07:04.639Z,17.57
2016-06-30T00:07:34.049Z,17.63
2016-06-30T00:08:04.668Z,17.65
2016-06-30T00:08:34.682Z,17.65
2016-06-30T00:09:04.697Z,17.57
2016-06-30T00:09:34.698Z,17.6
2016-06-30T00:10:04.732Z,17.64
2016-06-30T00:10:34.730Z,17.51
2016-06-30T00:11:04.763Z,17.52
2016-06-30T00:11:34.777Z,17.56
2016-06-30T00:12:04.783Z,17.59
2016-06-30T00:12:34.790Z,17.56
2016-06-30T00:13:04.813Z,17.56
2016-06-30T00:13:34.825Z,17.44
2016-06-30T00:14:04.845Z,17.51
2016-06-30T00:14:34.861Z,17.52
2016-06-30T00:15:04.881Z,17.49
2016-06-30T00:15:34.882Z,17.46
2016-06-30T00:16:04.900Z,17.49
2016-06-30T00:16:34.919Z,17.52
2016-06-30T00:17:04.949Z,17.54
2016-06-30T00:17:34.972Z,17.48
2016-06-30T00:18:04.967Z,17.46
2016-06-30T00:18:35.033Z,17.48
2016-06-30T00:19:04.997Z,17.63
2016-06-30T00:19:35.004Z,17.6
2016-06-30T00:20:05.045Z,17.54
2016-06-30T00:20:35.053Z,17.52
2016-06-30T00:21:05.074Z,17.49
2016-06-30T00:21:35.102Z,17.44
2016-06-30T00:22:05.090Z,17.49
2016-06-30T00:22:35.114Z,17.6
2016-06-30T00:23:05.119Z,17.6
2016-06-30T00:23:35.125Z,17.52
2016-06-30T00:24:05.138Z,17.59
2016-06-30T00:24:35.186Z,17.59
2016-06-30T00:25:05.172Z,17.48
2016-06-30T00:25:35.204Z,17.49
2016-06-30T00:26:05.207Z,17.45
2016-06-30T00:26:34.623Z,17.51
2016-06-30T00:27:05.254Z,17.49
2016-06-30T00:27:35.277Z,17.52
2016-06-30T00:28:05.305Z,17.51
2016-06-30T00:28:35.283Z,17.52
2016-06-30T00:29:05.312Z,17.52
2016-06-30T00:29:35.342Z,17.45
2016-06-30T00:30:05.333Z,17.52
2016-06-30T00:30:35.346Z,17.51
2016-06-30T00:31:05.367Z,17.56
2016-06-30T00:31:35.371Z,17.45
2016-06-30T00:32:05.405Z,17.45
2016-06-30T00:32:35.393Z,17.49
2016-06-30T00:33:05.421Z,17.49
2016-06-30T00:33:35.463Z,17.45
2016-06-30T00:34:05.454Z,17.49
2016-06-30T00:34:35.467Z,17.42
2016-06-30T00:35:05.483Z,17.49
2016-06-30T00:35:35.502Z,17.49
2016-06-30T00:36:05.524Z,17.49
2016-06-30T00:36:35.524Z,17.44
2016-06-30T00:37:05.539Z,17.56
2016-06-30T00:37:35.564Z,17.51
2016-06-30T00:38:05.575Z,17.52
2016-06-30T00:38:35.608Z,17.59
2016-06-30T00:39:05.600Z,17.49
2016-06-30T00:39:35.623Z,17.54
2016-06-30T00:40:05.681Z,17.52
2016-06-30T00:40:35.653Z,17.49
2016-06-30T00:41:05.676Z,17.54
2016-06-30T00:41:35.704Z,17.52
2016-06-30T00:42:05.694Z,17.48
2016-06-30T00:42:35.735Z,17.52
2016-06-30T00:43:05.718Z,17.49
2016-06-30T00:43:35.770Z,17.52
2016-06-30T00:44:05.777Z,17.52
2016-06-30T00:44:35.785Z,17.34
2016-06-30T00:45:05.800Z,17.48
2016-06-30T00:45:35.813Z,17.42
2016-06-30T00:46:05.837Z,17.46
2016-06-30T00:46:35.837Z,17.41
2016-06-30T00:47:05.857Z,17.48
2016-06-30T00:47:35.853Z,17.51
2016-06-30T00:48:05.879Z,17.49
2016-06-30T00:48:35.906Z,17.36
2016-06-30T00:49:05.909Z,17.38
2016-06-30T00:49:35.950Z,17.46
2016-06-30T00:50:05.333Z,17.36
2016-06-30T00:50:35.972Z,17.38
2016-06-30T00:51:05.979Z,17.36
2016-06-30T00:51:35.991Z,17.41
2016-06-30T00:52:05.996Z,17.36
2016-06-30T00:52:36.020Z,17.39
2016-06-30T00:53:06.036Z,17.44
2016-06-30T00:53:36.038Z,17.38
2016-06-30T00:54:06.045Z,17.36
2016-06-30T00:54:36.130Z,17.38
2016-06-30T00:55:06.095Z,17.38
2016-06-30T00:55:36.107Z,17.38
2016-06-30T00:56:06.130Z,17.41
2016-06-30T00:56:36.144Z,17.36
2016-06-30T00:57:06.139Z,17.34
2016-06-30T00:57:36.158Z,17.34
2016-06-30T00:58:06.181Z,17.31
2016-06-30T00:58:36.191Z,17.34
2016-06-30T00:59:06.226Z,17.33
2016-06-30T00:59:36.242Z,17.33
2016-06-30T01:00:06.281Z,17.33
2016-06-30T01:00:36.261Z,17.44
2016-06-30T01:01:06.281Z,17.38
2016-06-30T01:01:36.335Z,17.34
2016-06-30T01:02:06.309Z,17.33
2016-06-30T01:02:36.320Z,17.34
2016-06-30T01:03:06.466Z,17.45
2016-06-30T01:03:36.346Z,17.33
2016-06-30T01:04:06.389Z,17.42
2016-06-30T01:04:36.382Z,17.31
2016-06-30T01:05:06.388Z,17.36
2016-06-30T01:05:36.425Z,17.44
2016-06-30T01:06:06.430Z,17.41
2016-06-30T01:06:36.450Z,17.38
2016-06-30T01:07:06.541Z,17.39
2016-06-30T01:07:36.465Z,17.36
2016-06-30T01:08:06.482Z,17.42
2016-06-30T01:08:36.486Z,17.51
2016-06-30T01:09:06.522Z,17.48
2016-06-30T01:09:36.523Z,17.46
2016-06-30T01:10:05.948Z,17.41
2016-06-30T01:10:36.551Z,17.46
2016-06-30T01:11:06.594Z,17.45
2016-06-30T01:11:36.591Z,17.48
2016-06-30T01:12:06.615Z,17.51
2016-06-30T01:12:36.611Z,17.48
2016-06-30T01:13:06.644Z,17.46
2016-06-30T01:13:36.655Z,17.48
2016-06-30T01:14:06.670Z,17.54
2016-06-30T01:14:36.670Z,17.52
2016-06-30T01:15:06.693Z,17.56
2016-06-30T01:15:36.711Z,17.54
2016-06-30T01:16:06.729Z,17.41
2016-06-30T01:16:36.732Z,17.36
2016-06-30T01:17:06.768Z,17.38
2016-06-30T01:17:36.791Z,17.44
2016-06-30T01:18:06.793Z,17.34
2016-06-30T01:18:36.847Z,17.31
2016-06-30T01:19:06.819Z,17.38
2016-06-30T01:19:36.861Z,17.39
2016-06-30T01:20:06.836Z,17.34
2016-06-30T01:20:36.871Z,17.36
2016-06-30T01:21:06.882Z,17.31
2016-06-30T01:21:36.892Z,17.34
2016-06-30T01:22:06.913Z,17.34
2016-06-30T01:22:36.921Z,17.38
2016-06-30T01:23:06.954Z,17.34
2016-06-30T01:23:36.953Z,17.34
2016-06-30T01:24:06.967Z,17.33
2016-06-30T01:24:37.000Z,17.3
2016-06-30T01:25:07.031Z,17.3
2016-06-30T01:25:37.057Z,17.23
2016-06-30T01:26:07.024Z,17.36
2016-06-30T01:26:37.065Z,17.27
2016-06-30T01:27:07.081Z,17.34
2016-06-30T01:27:37.078Z,17.22
2016-06-30T01:28:07.090Z,17.33
2016-06-30T01:28:36.517Z,17.31
2016-06-30T01:29:07.113Z,17.29
2016-06-30T01:29:37.147Z,17.33
2016-06-30T01:30:07.149Z,17.31
2016-06-30T01:30:37.167Z,17.33
2016-06-30T01:31:07.197Z,17.33
2016-06-30T01:31:37.203Z,17.29
2016-06-30T01:32:07.219Z,17.33
2016-06-30T01:32:37.227Z,17.3
2016-06-30T01:33:07.269Z,17.29
2016-06-30T01:33:37.275Z,17.33
2016-06-30T01:34:07.269Z,17.31
2016-06-30T01:34:37.292Z,17.29
2016-06-30T01:35:07.301Z,17.29
2016-06-30T01:35:37.323Z,17.31
2016-06-30T01:36:07.331Z,17.33
2016-06-30T01:36:37.343Z,17.31
2016-06-30T01:37:07.358Z,17.29
2016-06-30T01:37:37.380Z,17.3
2016-06-30T01:38:07.393Z,17.26
2016-06-30T01:38:37.406Z,17.33
2016-06-30T01:39:07.414Z,17.33
2016-06-30T01:39:37.442Z,17.24
2016-06-30T01:40:07.499Z,17.26
2016-06-30T01:40:37.507Z,17.2
2016-06-30T01:41:07.568Z,17.2
2016-06-30T01:41:37.538Z,17.23
2016-06-30T01:42:07.550Z,17.23
2016-06-30T01:42:37.540Z,17.27
2016-06-30T01:43:07.560Z,17.3
2016-06-30T01:43:37.561Z,17.26
2016-06-30T01:44:07.578Z,17.24
2016-06-30T01:44:37.586Z,17.23
2016-06-30T01:45:07.626Z,17.26
2016-06-30T01:45:37.647Z,17.27
2016-06-30T01:46:07.041Z,17.24
2016-06-30T01:46:37.652Z,17.23
2016-06-30T01:47:07.670Z,17.23
2016-06-30T01:47:37.680Z,17.16
2016-06-30T01:48:07.696Z,17.24
2016-06-30T01:48:37.710Z,17.22
2016-06-30T01:49:07.735Z,17.2
2016-06-30T01:49:37.751Z,17.22
2016-06-30T01:50:07.761Z,17.24
2016-06-30T01:50:37.778Z,17.23
2016-06-30T01:51:07.796Z,17.27
2016-06-30T01:51:37.818Z,17.16
2016-06-30T01:52:07.822Z,17.26
2016-06-30T01:52:37.845Z,17.24
2016-06-30T01:53:07.865Z,17.26
2016-06-30T01:53:37.870Z,17.23
2016-06-30T01:54:07.886Z,17.22
2016-06-30T01:54:37.890Z,17.22
2016-06-30T01:55:07.929Z,17.22
2016-06-30T01:55:37.937Z,17.24
2016-06-30T01:56:07.952Z,17.22
2016-06-30T01:56:37.968Z,17.19
2016-06-30T01:57:07.970Z,17.3
2016-06-30T01:57:37.999Z,17.23
2016-06-30T01:58:08.021Z,17.22
2016-06-30T01:58:38.015Z,17.31
2016-06-30T01:59:08.049Z,17.29
2016-06-30T01:59:38.068Z,17.26
2016-06-30T02:00:08.061Z,17.23
2016-06-30T02:00:38.085Z,17.24
2016-06-30T02:01:08.092Z,17.26
2016-06-30T02:01:38.097Z,17.26
2016-06-30T02:02:08.138Z,17.23
2016-06-30T02:02:38.126Z,17.26
2016-06-30T02:03:08.146Z,17.26
2016-06-30T02:03:38.166Z,17.3
2016-06-30T02:04:08.185Z,17.23
2016-06-30T02:04:38.217Z,17.34
2016-06-30T02:05:08.214Z,17.3
2016-06-30T02:05:38.219Z,17.3
2016-06-30T02:06:08.238Z,17.2
2016-06-30T02:06:38.265Z,17.24
2016-06-30T02:07:08.302Z,17.2
2016-06-30T02:07:38.283Z,17.23
2016-06-30T02:08:08.305Z,17.2
2016-06-30T02:08:38.342Z,17.22
2016-06-30T02:09:08.354Z,17.2
2016-06-30T02:09:38.358Z,17.23
2016-06-30T02:10:08.386Z,17.19
2016-06-30T02:10:38.389Z,17.23
2016-06-30T02:11:08.392Z,17.2
2016-06-30T02:11:38.415Z,17.27
2016-06-30T02:12:08.418Z,17.24
2016-06-30T02:12:38.451Z,17.24
2016-06-30T02:13:08.459Z,17.23
2016-06-30T02:13:38.482Z,17.23
2016-06-30T02:14:08.535Z,17.23
2016-06-30T02:14:37.899Z,17.2
2016-06-30T02:15:08.523Z,17.3
2016-06-30T02:15:38.533Z,17.23
2016-06-30T02:16:08.559Z,17.27
2016-06-30T02:16:38.585Z,17.29
2016-06-30T02:17:08.583Z,17.3
2016-06-30T02:17:38.597Z,17.22
2016-06-30T02:18:08.605Z,17.29
2016-06-30T02:18:38.631Z,17.27
2016-06-30T02:19:08.639Z,17.29
2016-06-30T02:19:38.654Z,17.2
2016-06-30T02:20:08.685Z,17.24
2016-06-30T02:20:38.688Z,17.24
2016-06-30T02:21:08.701Z,17.26
2016-06-30T02:21:38.730Z,17.34
2016-06-30T02:22:08.726Z,17.16
2016-06-30T02:22:38.763Z,17.34
2016-06-30T02:23:08.801Z,17.29
2016-06-30T02:23:38.770Z,17.27
2016-06-30T02:24:08.785Z,17.24
2016-06-30T02:24:38.813Z,17.27
2016-06-30T02:25:08.230Z,17.33
2016-06-30T02:25:38.855Z,17.34
2016-06-30T02:26:09.076Z,17.26
2016-06-30T02:26:38.867Z,17.3
2016-06-30T02:27:08.892Z,17.26
2016-06-30T02:27:38.924Z,17.27
2016-06-30T02:28:08.908Z,17.33
2016-06-30T02:28:38.926Z,17.34
2016-06-30T02:29:08.942Z,17.26
2016-06-30T02:29:38.961Z,17.22
2016-06-30T02:30:08.967Z,17.24
2016-06-30T02:30:39.002Z,17.26
2016-06-30T02:31:09.004Z,17.26
2016-06-30T02:31:39.020Z,17.23
2016-06-30T02:32:09.031Z,17.31
2016-06-30T02:32:39.071Z,17.31
2016-06-30T02:33:09.073Z,17.33
2016-06-30T02:33:39.094Z,17.26
2016-06-30T02:34:09.089Z,17.31
2016-06-30T02:34:39.110Z,17.34
2016-06-30T02:35:09.136Z,17.2
2016-06-30T02:35:39.145Z,17.3
2016-06-30T02:36:09.163Z,17.27
2016-06-30T02:36:39.170Z,17.27
2016-06-30T02:37:09.183Z,17.22
2016-06-30T02:37:39.195Z,17.27
2016-06-30T02:38:09.209Z,17.26
2016-06-30T02:38:39.239Z,17.31
2016-06-30T02:39:09.256Z,17.3
2016-06-30T02:39:39.269Z,17.26
2016-06-30T02:40:09.265Z,17.24
2016-06-30T02:40:39.301Z,17.29
2016-06-30T02:41:09.304Z,17.31
2016-06-30T02:41:39.308Z,17.3
2016-06-30T02:42:09.374Z,17.26
2016-06-30T02:42:39.357Z,17.3
2016-06-30T02:43:09.374Z,17.34
2016-06-30T02:43:39.378Z,17.23
2016-06-30T02:44:09.397Z,17.2
2016-06-30T02:44:39.413Z,17.2
2016-06-30T02:45:09.419Z,17.26
2016-06-30T02:45:39.445Z,17.23
2016-06-30T02:46:09.443Z,17.26
2016-06-30T02:46:38.876Z,17.24
2016-06-30T02:47:09.509Z,17.24
2016-06-30T02:47:39.498Z,17.22
2016-06-30T02:48:09.539Z,17.29
2016-06-30T02:48:39.534Z,17.22
2016-06-30T02:49:09.545Z,17.24
2016-06-30T02:49:39.559Z,17.27
2016-06-30T02:50:09.583Z,17.29
2016-06-30T02:50:39.590Z,17.2
2016-06-30T02:51:09.603Z,17.33
2016-06-30T02:51:39.623Z,17.26
2016-06-30T02:52:09.630Z,17.19
2016-06-30T02:52:39.655Z,17.29
2016-06-30T02:53:09.657Z,17.26
2016-06-30T02:53:39.685Z,17.38
2016-06-30T02:54:09.695Z,17.27
2016-06-30T02:54:39.705Z,17.34
2016-06-30T02:55:09.735Z,17.16
2016-06-30T02:55:39.753Z,17.33
2016-06-30T02:56:09.772Z,17.24
2016-06-30T02:56:39.807Z,17.26
2016-06-30T02:57:09.776Z,17.31
2016-06-30T02:57:39.815Z,17.27
2016-06-30T02:58:09.818Z,17.19
2016-06-30T02:58:39.830Z,17.3
2016-06-30T02:59:09.851Z,17.2
2016-06-30T02:59:39.866Z,17.29
2016-06-30T03:00:09.878Z,17.23
2016-06-30T03:00:39.897Z,17.33
2016-06-30T03:01:09.910Z,17.27
2016-06-30T03:01:39.942Z,17.22
2016-06-30T03:02:09.939Z,17.23
2016-06-30T03:02:39.954Z,17.19
2016-06-30T03:03:09.980Z,17.29
2016-06-30T03:03:39.985Z,17.24
2016-06-30T03:04:09.997Z,17.26
2016-06-30T03:04:40.011Z,17.27
2016-06-30T03:05:10.021Z,17.16
2016-06-30T03:05:40.048Z,17.24
2016-06-30T03:06:10.055Z,17.29
2016-06-30T03:06:40.076Z,17.29
2016-06-30T03:07:10.083Z,17.31
2016-06-30T03:07:40.108Z,17.23
2016-06-30T03:08:10.172Z,17.27
2016-06-30T03:08:40.160Z,17.26
2016-06-30T03:09:10.180Z,17.23
2016-06-30T03:09:39.551Z,17.23
2016-06-30T03:10:10.193Z,17.22
2016-06-30T03:10:40.193Z,17.2
2016-06-30T03:11:10.216Z,17.23
2016-06-30T03:11:39.614Z,17.26
2016-06-30T03:12:10.237Z,17.29
2016-06-30T03:12:40.265Z,17.33
2016-06-30T03:13:10.268Z,17.27
2016-06-30T03:13:40.278Z,17.22
2016-06-30T03:14:10.306Z,17.27
2016-06-30T03:14:40.310Z,17.22
2016-06-30T03:15:10.328Z,17.31
2016-06-30T03:15:39.761Z,17.2
2016-06-30T03:16:10.366Z,17.26
2016-06-30T03:16:40.362Z,17.23
2016-06-30T03:17:10.430Z,17.22
2016-06-30T03:17:40.411Z,17.23
2016-06-30T03:18:10.439Z,17.26
2016-06-30T03:18:40.442Z,17.26
2016-06-30T03:19:10.458Z,17.27
2016-06-30T03:19:40.479Z,17.27
2016-06-30T03:20:10.487Z,17.24
2016-06-30T03:20:40.499Z,17.24
2016-06-30T03:21:10.526Z,17.22
2016-06-30T03:21:40.637Z,17.23
2016-06-30T03:22:10.146Z,17.26
2016-06-30T03:22:40.677Z,17.33
2016-06-30T03:23:10.744Z,17.16
2016-06-30T03:23:40.647Z,17.24
2016-06-30T03:24:10.646Z,17.22
2016-06-30T03:24:40.610Z,17.33
2016-06-30T03:25:10.638Z,17.34
2016-06-30T03:25:40.647Z,17.16
2016-06-30T03:26:10.678Z,17.33
2016-06-30T03:26:40.683Z,17.27
2016-06-30T03:27:10.691Z,17.29
2016-06-30T03:27:40.725Z,17.23
2016-06-30T03:28:10.731Z,17.31
2016-06-30T03:28:40.745Z,17.3
2016-06-30T03:29:10.153Z,17.31
2016-06-30T03:29:40.768Z,17.26
2016-06-30T03:30:10.805Z,17.29
2016-06-30T03:30:40.808Z,17.24
2016-06-30T03:31:10.822Z,17.23
2016-06-30T03:31:40.843Z,17.22
2016-06-30T03:32:10.852Z,17.2
2016-06-30T03:32:40.862Z,17.29
2016-06-30T03:33:10.885Z,17.3
2016-06-30T03:33:40.902Z,17.33
2016-06-30T03:34:10.910Z,17.27
2016-06-30T03:34:40.928Z,17.27
2016-06-30T03:35:10.935Z,17.29
2016-06-30T03:35:40.968Z,17.16
2016-06-30T03:36:10.960Z,17.3
2016-06-30T03:36:41.006Z,17.24
2016-06-30T03:37:11.014Z,17.23
2016-06-30T03:37:41.020Z,17.33
2016-06-30T03:38:10.444Z,17.22
2016-06-30T03:38:41.057Z,17.24
2016-06-30T03:39:11.050Z,17.27
2016-06-30T03:39:41.077Z,17.29
2016-06-30T03:40:11.118Z,17.27
2016-06-30T03:40:41.113Z,17.29
2016-06-30T03:41:11.170Z,17.31
2016-06-30T03:41:41.130Z,17.3
2016-06-30T03:42:11.160Z,17.29
2016-06-30T03:42:41.169Z,17.33
2016-06-30T03:43:11.214Z,17.3
2016-06-30T03:43:41.200Z,17.2
2016-06-30T03:44:11.204Z,17.33
2016-06-30T03:44:41.231Z,17.22
2016-06-30T03:45:11.267Z,17.2
2016-06-30T03:45:41.249Z,17.24
2016-06-30T03:46:11.307Z,17.23
2016-06-30T03:46:41.294Z,17.24
2016-06-30T03:47:11.303Z,17.24
2016-06-30T03:47:41.329Z,17.26
2016-06-30T03:48:11.338Z,17.27
2016-06-30T03:48:41.339Z,17.19
2016-06-30T03:49:11.367Z,17.26
2016-06-30T03:49:41.384Z,17.23
2016-06-30T03:50:11.395Z,17.24
2016-06-30T03:50:41.409Z,17.22
2016-06-30T03:51:11.438Z,17.23
2016-06-30T03:51:41.443Z,17.31
2016-06-30T03:52:11.454Z,17.24
2016-06-30T03:52:41.477Z,17.3
2016-06-30T03:53:11.513Z,17.27
2016-06-30T03:53:41.509Z,17.31
2016-06-30T03:54:11.519Z,17.31
2016-06-30T03:54:41.530Z,17.29
2016-06-30T03:55:11.580Z,17.27
2016-06-30T03:55:41.581Z,17.3
2016-06-30T03:56:11.580Z,17.31
2016-06-30T03:56:41.592Z,17.3
2016-06-30T03:57:11.618Z,17.29
2016-06-30T03:57:41.631Z,17.33
2016-06-30T03:58:11.639Z,17.27
2016-06-30T03:58:41.642Z,17.27
2016-06-30T03:59:11.666Z,17.36
2016-06-30T03:59:41.683Z,17.29
2016-06-30T04:00:11.696Z,17.33
2016-06-30T04:00:41.701Z,17.26
2016-06-30T04:01:11.728Z,17.27
2016-06-30T04:01:41.741Z,17.26
2016-06-30T04:02:11.761Z,17.29
2016-06-30T04:02:41.769Z,17.26
2016-06-30T04:03:11.793Z,17.31
2016-06-30T04:03:41.807Z,17.31
2016-06-30T04:04:11.823Z,17.38
2016-06-30T04:04:41.854Z,17.26
2016-06-30T04:05:11.840Z,17.27
2016-06-30T04:05:41.266Z,17.31
2016-06-30T04:06:11.905Z,17.33
2016-06-30T04:06:41.897Z,17.27
2016-06-30T04:07:11.913Z,17.29
2016-06-30T04:07:41.935Z,17.24
2016-06-30T04:08:11.949Z,17.29
2016-06-30T04:08:41.972Z,17.29
2016-06-30T04:09:11.972Z,17.29
2016-06-30T04:09:41.990Z,17.31
2016-06-30T04:10:12.005Z,17.27
2016-06-30T04:10:42.017Z,17.34
2016-06-30T04:11:12.055Z,17.27
2016-06-30T04:11:42.062Z,17.27
2016-06-30T04:12:12.069Z,17.29
2016-06-30T04:12:42.086Z,17.33
2016-06-30T04:13:12.098Z,17.36
2016-06-30T04:13:42.132Z,17.34
2016-06-30T04:14:12.135Z,17.27
2016-06-30T04:14:42.140Z,17.3
2016-06-30T04:15:12.163Z,17.33
2016-06-30T04:15:42.167Z,17.31
2016-06-30T04:16:12.209Z,17.26
2016-06-30T04:16:42.220Z,17.27
2016-06-30T04:17:12.218Z,17.27
2016-06-30T04:17:42.251Z,17.29
2016-06-30T04:18:12.274Z,17.29
2016-06-30T04:18:42.258Z,17.29
2016-06-30T04:19:12.283Z,17.31
2016-06-30T04:19:42.311Z,17.29
2016-06-30T04:20:12.316Z,17.24
2016-06-30T04:20:42.343Z,17.29
2016-06-30T04:21:12.346Z,17.29
2016-06-30T04:21:42.364Z,17.29
2016-06-30T04:22:12.364Z,17.33
2016-06-30T04:22:42.379Z,17.27
2016-06-30T04:23:12.412Z,17.31
2016-06-30T04:23:42.436Z,17.27
2016-06-30T04:24:12.441Z,17.3
2016-06-30T04:24:42.443Z,17.22
2016-06-30T04:25:12.471Z,17.34
2016-06-30T04:25:42.468Z,17.23
2016-06-30T04:26:12.490Z,17.24
2016-06-30T04:26:42.500Z,17.27
2016-06-30T04:27:12.519Z,17.36
2016-06-30T04:27:42.535Z,17.3
2016-06-30T04:28:11.342Z,17.3
2016-06-30T04:28:42.545Z,17.26
2016-06-30T04:29:12.579Z,17.29
2016-06-30T04:29:42.602Z,17.27
2016-06-30T04:30:12.599Z,17.24
2016-06-30T04:30:42.632Z,17.29
2016-06-30T04:31:12.645Z,17.29
2016-06-30T04:31:42.655Z,17.26
2016-06-30T04:32:12.667Z,17.24
2016-06-30T04:32:42.690Z,17.2
2016-06-30T04:33:12.695Z,17.3
2016-06-30T04:33:42.767Z,17.22
2016-06-30T04:34:12.719Z,17.27
2016-06-30T04:34:42.743Z,17.29
2016-06-30T04:35:12.172Z,17.3
2016-06-30T04:35:42.781Z,17.2
2016-06-30T04:36:12.838Z,17.24
2016-06-30T04:36:42.831Z,17.2
2016-06-30T04:37:12.846Z,17.2
2016-06-30T04:37:42.827Z,17.26
2016-06-30T04:38:12.846Z,17.09
2016-06-30T04:38:42.873Z,17.19
2016-06-30T04:39:12.909Z,17.11
2016-06-30T04:39:42.893Z,17.16
2016-06-30T04:40:12.913Z,17.06
2016-06-30T04:40:42.930Z,17.12
2016-06-30T04:41:12.931Z,17.04
2016-06-30T04:41:42.957Z,16.99
2016-06-30T04:42:12.965Z,16.84
2016-06-30T04:42:43.010Z,16.83
2016-06-30T04:43:13.012Z,16.74
2016-06-30T04:43:43.022Z,16.74
2016-06-30T04:44:13.060Z,16.65
2016-06-30T04:44:43.057Z,16.57
2016-06-30T04:45:13.072Z,16.58
2016-06-30T04:45:43.078Z,16.54
2016-06-30T04:46:13.099Z,16.47
2016-06-30T04:46:43.121Z,16.46
2016-06-30T04:47:13.143Z,16.31
2016-06-30T04:47:43.147Z,16.36
2016-06-30T04:48:13.180Z,16.38
2016-06-30T04:48:43.170Z,16.38
2016-06-30T04:49:13.179Z,16.38
2016-06-30T04:49:43.202Z,16.31
2016-06-30T04:50:12.007Z,16.38
2016-06-30T04:50:43.232Z,16.35
2016-06-30T04:51:13.277Z,16.35
2016-06-30T04:51:43.268Z,16.35
2016-06-30T04:52:12.669Z,16.33
2016-06-30T04:52:43.295Z,16.38
2016-06-30T04:53:13.319Z,16.29
2016-06-30T04:53:43.329Z,16.28
2016-06-30T04:54:13.335Z,16.31
2016-06-30T04:54:43.350Z,16.38
2016-06-30T04:55:13.358Z,16.33
2016-06-30T04:55:43.393Z,16.31
2016-06-30T04:56:13.408Z,16.41
2016-06-30T04:56:43.418Z,16.29
2016-06-30T04:57:12.817Z,16.33
2016-06-30T04:57:43.449Z,16.31
2016-06-30T04:58:13.438Z,16.33
2016-06-30T04:58:43.465Z,16.35
2016-06-30T04:59:13.493Z,16.31
2016-06-30T04:59:43.487Z,16.38
2016-06-30T05:00:13.522Z,16.41
2016-06-30T05:00:43.540Z,16.41
2016-06-30T05:01:13.550Z,16.32
2016-06-30T05:01:43.563Z,16.35
2016-06-30T05:02:13.582Z,16.39
2016-06-30T05:02:43.626Z,16.38
2016-06-30T05:03:13.615Z,16.33
2016-06-30T05:03:43.630Z,16.43
2016-06-30T05:04:13.636Z,16.42
2016-06-30T05:04:43.653Z,16.33
2016-06-30T05:05:13.661Z,16.43
2016-06-30T05:05:43.075Z,16.35
2016-06-30T05:06:13.694Z,16.36
2016-06-30T05:06:43.711Z,16.38
2016-06-30T05:07:13.727Z,16.36
2016-06-30T05:07:43.741Z,16.33
2016-06-30T05:08:13.750Z,16.39
2016-06-30T05:08:43.765Z,16.42
2016-06-30T05:09:13.790Z,16.38
2016-06-30T05:09:43.814Z,16.36
2016-06-30T05:10:13.829Z,16.32
2016-06-30T05:10:43.827Z,16.46
2016-06-30T05:11:13.866Z,16.5
2016-06-30T05:11:43.881Z,16.46
2016-06-30T05:12:13.876Z,16.5
2016-06-30T05:12:43.899Z,16.42
2016-06-30T05:13:13.907Z,16.47
2016-06-30T05:13:43.913Z,16.46
2016-06-30T05:14:13.947Z,16.49
2016-06-30T05:14:43.942Z,16.54
2016-06-30T05:15:13.973Z,16.49
2016-06-30T05:15:43.984Z,16.51
2016-06-30T05:16:13.981Z,16.49
2016-06-30T05:16:44.012Z,16.54
2016-06-30T05:17:14.026Z,16.5
2016-06-30T05:17:43.436Z,16.54
2016-06-30T05:18:14.062Z,16.61
2016-06-30T05:18:44.068Z,16.57
2016-06-30T05:19:14.090Z,16.58
2016-06-30T05:19:44.109Z,16.5
2016-06-30T05:20:14.110Z,16.65
2016-06-30T05:20:44.147Z,16.66
2016-06-30T05:21:14.174Z,16.61
2016-06-30T05:21:44.169Z,16.65
2016-06-30T05:22:14.171Z,16.65
2016-06-30T05:22:44.195Z,16.66
2016-06-30T05:23:14.197Z,16.71
2016-06-30T05:23:44.223Z,16.69
2016-06-30T05:24:14.230Z,16.68
2016-06-30T05:24:44.251Z,16.72
2016-06-30T05:25:14.274Z,16.74
2016-06-30T05:25:44.285Z,16.72
2016-06-30T05:26:14.314Z,16.69
2016-06-30T05:26:44.309Z,16.75
2016-06-30T05:27:14.320Z,16.71
2016-06-30T05:27:44.323Z,16.75
2016-06-30T05:28:14.362Z,16.75
2016-06-30T05:28:44.387Z,16.72
2016-06-30T05:29:14.386Z,16.75
2016-06-30T05:29:44.415Z,16.69
2016-06-30T05:30:14.416Z,16.71
2016-06-30T05:30:44.427Z,16.72
2016-06-30T05:31:14.444Z,16.78
2016-06-30T05:31:44.458Z,16.71
2016-06-30T05:32:14.483Z,16.78
2016-06-30T05:32:44.491Z,16.83
2016-06-30T05:33:14.514Z,16.81
2016-06-30T05:33:44.515Z,16.79
2016-06-30T05:34:14.539Z,16.84
2016-06-30T05:34:44.549Z,16.89
2016-06-30T05:35:14.574Z,16.94
2016-06-30T05:35:44.030Z,17.04
2016-06-30T05:36:14.625Z,16.97
2016-06-30T05:36:44.634Z,17.04
2016-06-30T05:37:14.110Z,16.96
2016-06-30T05:37:44.066Z,16.96
2016-06-30T05:38:14.661Z,17.08
2016-06-30T05:38:44.675Z,17.08
2016-06-30T05:39:14.692Z,17.01
2016-06-30T05:39:44.710Z,17.09
2016-06-30T05:40:14.716Z,17.04
2016-06-30T05:40:44.722Z,17.06
2016-06-30T05:41:14.745Z,17.09
2016-06-30T05:41:44.742Z,17.06
2016-06-30T05:42:14.787Z,17.14
2016-06-30T05:42:44.798Z,17.12
2016-06-30T05:43:14.794Z,17.22
2016-06-30T05:43:44.826Z,17.22
2016-06-30T05:44:14.871Z,17.29
2016-06-30T05:44:44.859Z,17.23
2016-06-30T05:45:14.887Z,17.23
2016-06-30T05:45:44.894Z,17.34
2016-06-30T05:46:14.932Z,17.27
2016-06-30T05:46:44.915Z,17.31
2016-06-30T05:47:14.327Z,17.36
2016-06-30T05:47:44.944Z,17.36
2016-06-30T05:48:14.992Z,17.39
2016-06-30T05:48:44.980Z,17.36
2016-06-30T05:49:14.998Z,17.39
2016-06-30T05:49:45.014Z,17.33
2016-06-30T05:50:15.019Z,17.42
2016-06-30T05:50:45.041Z,17.38
2016-06-30T05:51:15.056Z,17.33
2016-06-30T05:51:45.091Z,17.39
2016-06-30T05:52:14.487Z,17.31
2016-06-30T05:52:45.095Z,17.38
2016-06-30T05:53:15.120Z,17.48
2016-06-30T05:53:45.146Z,17.49
2016-06-30T05:54:15.153Z,17.56
2016-06-30T05:54:45.175Z,17.56
2016-06-30T05:55:15.194Z,17.57
2016-06-30T05:55:45.206Z,17.71
2016-06-30T05:56:14.638Z,17.74
2016-06-30T05:56:45.236Z,17.63
2016-06-30T05:57:15.237Z,17.67
2016-06-30T05:57:45.266Z,17.67
2016-06-30T05:58:15.275Z,17.74
2016-06-30T05:58:45.305Z,17.76
2016-06-30T05:59:15.306Z,17.78
2016-06-30T05:59:45.309Z,17.83
2016-06-30T06:00:15.329Z,17.82
2016-06-30T06:00:45.341Z,17.74
2016-06-30T06:01:15.357Z,17.74
2016-06-30T06:01:45.370Z,17.72
2016-06-30T06:02:15.386Z,17.65
2016-06-30T06:02:45.417Z,17.67
2016-06-30T06:03:15.448Z,17.7
2016-06-30T06:03:45.431Z,17.78
2016-06-30T06:04:15.505Z,17.64
2016-06-30T06:04:45.500Z,17.64
2016-06-30T06:05:15.483Z,17.67
2016-06-30T06:05:45.501Z,17.67
2016-06-30T06:06:15.519Z,17.6
2016-06-30T06:06:45.514Z,17.6
2016-06-30T06:07:15.543Z,17.64
2016-06-30T06:07:45.555Z,17.65
2016-06-30T06:08:15.563Z,17.56
2016-06-30T06:08:45.586Z,17.64
2016-06-30T06:09:15.602Z,17.6
2016-06-30T06:09:45.612Z,17.67
2016-06-30T06:10:15.640Z,17.59
2016-06-30T06:10:45.654Z,17.68
2016-06-30T06:11:15.671Z,17.78
2016-06-30T06:11:45.692Z,17.63
2016-06-30T06:12:15.708Z,17.78
2016-06-30T06:12:45.740Z,17.74
2016-06-30T06:13:15.719Z,17.87
2016-06-30T06:13:45.750Z,17.79
2016-06-30T06:14:15.777Z,17.8
2016-06-30T06:14:45.780Z,17.82
2016-06-30T06:15:15.793Z,17.83
2016-06-30T06:15:45.794Z,17.85
2016-06-30T06:16:15.817Z,17.85
2016-06-30T06:16:45.829Z,17.85
2016-06-30T06:17:15.842Z,17.74
2016-06-30T06:17:45.867Z,17.87
2016-06-30T06:18:15.931Z,17.71
2016-06-30T06:18:45.894Z,17.76
2016-06-30T06:19:15.928Z,17.72
2016-06-30T06:19:45.927Z,17.74
2016-06-30T06:20:15.955Z,17.7
2016-06-30T06:20:45.975Z,17.7
2016-06-30T06:21:15.976Z,17.72
2016-06-30T06:21:46.007Z,17.78
2016-06-30T06:22:16.007Z,17.68
2016-06-30T06:22:46.025Z,17.79
2016-06-30T06:23:16.034Z,17.79
2016-06-30T06:23:46.064Z,17.86
2016-06-30T06:24:16.079Z,17.87
2016-06-30T06:24:46.100Z,17.85
2016-06-30T06:25:16.102Z,17.89
2016-06-30T06:25:46.137Z,17.85
2016-06-30T06:26:16.139Z,17.9
2016-06-30T06:26:46.144Z,17.83
2016-06-30T06:27:16.158Z,17.86
2016-06-30T06:27:46.163Z,17.76